createdAt,value
2022-09-02T00:01:24.922Z,97256.88
2022-09-02T00:03:53.062Z,97258.97
2022-09-02T00:06:19.721Z,97261.09
2022-09-02T00:08:46.433Z,97257.97
2022-09-02T00:11:18.506Z,97255.53
2022-09-02T00:13:47.098Z,97250.59
2022-09-02T00:16:14.766Z,97248.41
2022-09-02T00:18:44.942Z,97245.50
2022-09-02T00:21:13.713Z,97242.25
2022-09-02T00:23:44.509Z,97245.91
2022-09-02T00:26:13.437Z,97237.75
2022-09-02T00:28:51.088Z,97241.97
2022-09-02T00:31:23.604Z,97239.09
2022-09-02T00:33:51.472Z,97232.69
2022-09-02T00:36:18.090Z,97237.63
2022-09-02T00:38:44.691Z,97235.72
2022-09-02T00:41:11.893Z,97236.19
2022-09-02T00:43:46.546Z,97229.53
2022-09-02T00:46:19.466Z,97232.84
2022-09-02T00:49:12.656Z,97230.13
2022-09-02T00:51:47.309Z,97224.09
2022-09-02T00:54:16.672Z,97226.56
2022-09-02T00:56:46.091Z,97220.28
2022-09-02T00:59:20.808Z,97222.81
2022-09-02T01:01:47.877Z,97228.06
2022-09-02T01:04:15.679Z,97227.25
2022-09-02T01:06:42.283Z,97227.72
2022-09-02T01:09:13.290Z,97234.19
2022-09-02T01:11:47.951Z,97235.72
2022-09-02T01:14:17.606Z,97231.84
2022-09-02T01:16:47.559Z,97235.19
2022-09-02T01:19:30.658Z,97237.56
2022-09-02T01:21:57.849Z,97235.31
2022-09-02T01:24:32.647Z,97226.59
2022-09-02T01:27:00.331Z,97228.06
2022-09-02T01:29:28.771Z,97229.56
2022-09-02T01:31:55.782Z,97230.22
2022-09-02T01:34:23.295Z,97227.25
2022-09-02T01:36:50.077Z,97223.19
2022-09-02T01:39:17.352Z,97232.47
2022-09-02T01:41:44.510Z,97222.41
2022-09-02T01:44:11.079Z,97227.69
2022-09-02T01:46:37.812Z,97221.69
2022-09-02T01:49:04.764Z,97220.00
2022-09-02T01:51:31.419Z,97216.22
2022-09-02T01:53:58.000Z,97225.69
2022-09-02T01:56:24.589Z,97219.88
2022-09-02T01:58:51.205Z,97220.84
2022-09-02T02:01:19.705Z,97217.19
2022-09-02T02:03:46.881Z,97223.28
2022-09-02T02:06:16.746Z,97224.69
2022-09-02T02:08:44.034Z,97220.75
2022-09-02T02:11:10.847Z,97217.66
2022-09-02T02:13:37.802Z,97209.31
2022-09-02T02:16:05.723Z,97204.78
2022-09-02T02:18:32.383Z,97207.59
2022-09-02T02:20:58.911Z,97208.50
2022-09-02T02:23:26.160Z,97200.78
2022-09-02T02:25:52.856Z,97201.78
2022-09-02T02:28:19.507Z,97197.09
2022-09-02T02:30:46.093Z,97196.03
2022-09-02T02:33:13.612Z,97192.91
2022-09-02T02:35:41.303Z,97199.00
2022-09-02T02:38:08.532Z,97191.13
2022-09-02T02:40:35.545Z,97188.78
2022-09-02T02:43:02.260Z,97194.94
2022-09-02T02:45:29.373Z,97199.56
2022-09-02T02:47:55.903Z,97205.13
2022-09-02T02:50:24.185Z,97205.25
2022-09-02T02:52:53.376Z,97202.72
2022-09-02T02:55:20.595Z,97199.03
2022-09-02T02:57:47.343Z,97199.75
2022-09-02T03:00:16.621Z,97197.22
2022-09-02T03:02:43.334Z,97204.19
2022-09-02T03:05:13.387Z,97199.22
2022-09-02T03:07:39.955Z,97195.09
2022-09-02T03:10:08.589Z,97192.84
2022-09-02T03:12:36.753Z,97192.03
2022-09-02T03:15:04.757Z,97187.03
2022-09-02T03:17:31.474Z,97185.19
2022-09-02T03:19:59.176Z,97179.56
2022-09-02T03:22:28.860Z,97182.94
2022-09-02T03:24:55.857Z,97184.94
2022-09-02T03:27:22.623Z,97186.69
2022-09-02T03:29:49.178Z,97182.81
2022-09-02T03:32:16.975Z,97184.28
2022-09-02T03:34:43.620Z,97185.47
2022-09-02T03:37:10.393Z,97173.34
2022-09-02T03:39:39.415Z,97171.00
2022-09-02T03:42:06.374Z,97171.38
2022-09-02T03:44:34.314Z,97168.59
2022-09-02T03:47:01.029Z,97172.53
2022-09-02T03:49:28.809Z,97176.22
2022-09-02T03:51:56.080Z,97174.53
2022-09-02T03:54:23.197Z,97172.47
2022-09-02T03:56:50.045Z,97173.44
2022-09-02T03:59:17.053Z,97171.88
2022-09-02T04:01:45.190Z,97174.19
2022-09-02T04:04:12.067Z,97170.00
2022-09-02T04:06:38.779Z,97171.28
2022-09-02T04:09:05.973Z,97162.84
2022-09-02T04:11:32.645Z,97170.72
2022-09-02T04:13:59.491Z,97171.38
2022-09-02T04:17:22.301Z,97172.44
2022-09-02T04:20:44.922Z,97169.09
2022-09-02T04:23:11.816Z,97171.16
2022-09-02T04:25:41.892Z,97170.31
2022-09-02T04:28:08.483Z,97170.31
2022-09-02T04:30:37.963Z,97162.75
2022-09-02T04:33:05.869Z,97166.09
2022-09-02T04:35:32.418Z,97155.78
2022-09-02T04:37:59.596Z,97166.91
2022-09-02T04:40:26.275Z,97174.00
2022-09-02T04:42:55.452Z,97169.25
2022-09-02T04:45:24.584Z,97173.09
2022-09-02T04:47:53.294Z,97168.75
2022-09-02T04:50:20.068Z,97169.91
2022-09-02T04:52:46.574Z,97175.47
2022-09-02T04:55:13.160Z,97173.59
2022-09-02T04:57:39.746Z,97171.34
2022-09-02T05:00:08.214Z,97174.59
2022-09-02T05:02:35.216Z,97179.16
2022-09-02T05:05:02.060Z,97182.38
2022-09-02T05:07:28.671Z,97179.38
2022-09-02T05:10:01.035Z,97175.22
2022-09-02T05:12:28.085Z,97178.00
2022-09-02T05:14:57.103Z,97175.94
2022-09-02T05:17:23.749Z,97184.59
2022-09-02T05:19:50.327Z,97180.81
2022-09-02T05:22:17.040Z,97179.84
2022-09-02T05:24:43.759Z,97182.72
2022-09-02T05:27:10.572Z,97189.25
2022-09-02T05:29:37.539Z,97180.09
2022-09-02T05:32:05.155Z,97181.00
2022-09-02T05:34:35.692Z,97182.56
2022-09-02T05:37:04.116Z,97178.06
2022-09-02T05:39:31.224Z,97181.84
2022-09-02T05:41:58.364Z,97179.44
2022-09-02T05:44:25.081Z,97172.59
2022-09-02T05:46:51.728Z,97169.94
2022-09-02T05:49:18.498Z,97178.50
2022-09-02T05:51:50.775Z,97174.72
2022-09-02T05:54:21.160Z,97174.69
2022-09-02T05:56:50.051Z,97179.06
2022-09-02T05:59:19.696Z,97167.03
2022-09-02T06:01:47.078Z,97170.28
2022-09-02T06:04:13.952Z,97172.41
2022-09-02T06:06:41.897Z,97171.25
2022-09-02T06:09:10.688Z,97171.34
2022-09-02T06:11:39.959Z,97166.94
2022-09-02T06:14:10.246Z,97170.97
2022-09-02T06:16:38.119Z,97150.81
2022-09-02T06:19:05.046Z,97152.78
2022-09-02T06:21:32.528Z,97154.34
2022-09-02T06:23:59.988Z,97156.31
2022-09-02T06:26:26.911Z,97150.72
2022-09-02T06:28:53.455Z,97157.91
2022-09-02T06:31:22.970Z,97154.53
2022-09-02T06:33:53.147Z,97157.47
2022-09-02T06:36:21.552Z,97152.63
2022-09-02T06:38:52.953Z,97157.84
2022-09-02T06:41:23.378Z,97160.97
2022-09-02T06:43:50.611Z,97154.22
2022-09-02T06:46:23.274Z,97154.19
2022-09-02T06:48:50.287Z,97156.09
2022-09-02T06:51:22.127Z,97150.31
2022-09-02T06:53:48.692Z,97152.09
2022-09-02T06:56:16.223Z,97148.84
2022-09-02T06:58:43.804Z,97144.88
2022-09-02T07:01:13.362Z,97153.38
2022-09-02T07:03:58.669Z,97153.41
2022-09-02T07:06:25.967Z,97154.94
2022-09-02T07:08:52.591Z,97155.34
2022-09-02T07:11:23.808Z,97152.13
2022-09-02T07:13:50.996Z,97161.75
2022-09-02T07:16:26.928Z,97155.41
2022-09-02T07:18:54.396Z,97163.91
2022-09-02T07:21:20.966Z,97153.56
2022-09-02T07:23:47.603Z,97154.09
2022-09-02T07:26:16.177Z,97149.19
2022-09-02T07:28:43.217Z,97143.81
2022-09-02T07:31:15.138Z,97145.66
2022-09-02T07:33:44.299Z,97150.78
2022-09-02T07:36:16.694Z,97148.69
2022-09-02T07:38:43.330Z,97142.66
2022-09-02T07:41:10.754Z,97142.59
2022-09-02T07:43:38.029Z,97147.22
2022-09-02T07:46:06.348Z,97140.41
2022-09-02T07:48:34.569Z,97143.06
2022-09-02T07:51:01.478Z,97145.03
2022-09-02T07:53:28.563Z,97144.25
2022-09-02T07:55:55.186Z,97141.19
2022-09-02T07:58:22.509Z,97148.88
2022-09-02T08:00:50.342Z,97145.97
2022-09-02T08:03:18.147Z,97141.59
2022-09-02T08:05:47.154Z,97139.47
2022-09-02T08:08:15.786Z,97139.19
2022-09-02T08:10:42.799Z,97143.75
2022-09-02T08:13:10.549Z,97137.97
2022-09-02T08:15:38.897Z,97143.78
2022-09-02T08:18:06.929Z,97146.91
2022-09-02T08:20:35.632Z,97135.16
2022-09-02T08:23:11.622Z,97146.56
2022-09-02T08:25:45.495Z,97135.13
2022-09-02T08:28:12.060Z,97137.72
2022-09-02T08:30:38.970Z,97132.72
2022-09-02T08:33:05.922Z,97127.41
2022-09-02T08:35:32.997Z,97131.31
2022-09-02T08:38:01.496Z,97121.97
2022-09-02T08:40:37.281Z,97123.25
2022-09-02T08:43:39.928Z,97122.22
2022-09-02T08:46:11.289Z,97119.25
2022-09-02T08:48:46.238Z,97111.56
2022-09-02T08:51:24.247Z,97114.28
2022-09-02T08:54:13.776Z,97107.69
2022-09-02T08:56:41.658Z,97119.59
2022-09-02T08:59:10.339Z,97111.75
2022-09-02T09:01:53.500Z,97110.66
2022-09-02T09:04:22.937Z,97114.41
2022-09-02T09:07:01.436Z,97111.69
2022-09-02T09:10:05.930Z,97107.88
2022-09-02T09:12:57.038Z,97102.97
2022-09-02T09:15:40.374Z,97107.53
2022-09-02T09:18:17.089Z,97103.31
2022-09-02T09:20:45.215Z,97090.06
2022-09-02T09:23:35.127Z,97098.34
2022-09-02T09:26:12.254Z,97097.88
2022-09-02T09:28:49.309Z,97090.78
2022-09-02T09:31:21.757Z,97095.78
2022-09-02T09:34:14.673Z,97100.59
2022-09-02T09:36:41.187Z,97103.31
2022-09-02T09:39:24.871Z,97103.91
2022-09-02T09:41:54.786Z,97088.88
2022-09-02T09:44:46.413Z,97085.06
2022-09-02T09:47:22.824Z,97086.97
2022-09-02T09:50:09.491Z,97081.66
2022-09-02T09:52:36.291Z,97088.56
2022-09-02T09:55:24.970Z,97087.03
2022-09-02T09:57:53.563Z,97071.53
2022-09-02T10:00:26.915Z,97076.84
2022-09-02T10:02:56.830Z,97074.63
2022-09-02T10:05:40.365Z,97081.19
2022-09-02T10:08:22.681Z,97076.13
2022-09-02T10:10:55.577Z,97075.56
2022-09-02T10:13:25.742Z,97071.38
2022-09-02T10:16:04.289Z,97067.75
2022-09-02T10:18:42.686Z,97084.03
2022-09-02T10:21:39.058Z,97070.03
2022-09-02T10:24:38.381Z,97067.56
2022-09-02T10:27:09.208Z,97062.97
2022-09-02T10:29:35.689Z,97068.78
2022-09-02T10:32:33.140Z,97066.31
2022-09-02T10:35:08.500Z,97073.16
2022-09-02T10:37:52.169Z,97067.44
2022-09-02T10:40:27.393Z,97065.03
2022-09-02T10:42:57.365Z,97072.91
2022-09-02T10:45:46.808Z,97055.31
2022-09-02T10:48:41.534Z,97059.50
2022-09-02T10:51:16.818Z,97050.88
2022-09-02T10:53:54.790Z,97046.06
2022-09-02T10:56:29.295Z,97044.19
2022-09-02T10:59:02.870Z,97052.41
2022-09-02T11:01:52.553Z,97048.69
2022-09-02T11:04:40.782Z,97045.97
2022-09-02T11:07:10.924Z,97043.75
2022-09-02T11:09:54.646Z,97037.94
2022-09-02T11:12:32.043Z,97038.31
2022-09-02T11:15:24.077Z,97037.22
2022-09-02T11:18:00.544Z,97030.59
2022-09-02T11:20:39.749Z,97024.88
2022-09-02T11:23:25.049Z,97032.09
2022-09-02T11:26:08.747Z,97024.28
2022-09-02T11:28:59.826Z,97043.22
2022-09-02T11:31:54.700Z,97031.91
2022-09-02T11:34:38.431Z,97032.19
2022-09-02T11:37:08.959Z,97019.03
2022-09-02T11:40:06.659Z,97013.66
2022-09-02T11:42:50.493Z,97019.16
2022-09-02T11:45:22.112Z,97014.84
2022-09-02T11:48:29.831Z,97012.75
2022-09-02T11:53:48.775Z,97011.03
2022-09-02T11:56:35.626Z,97015.22
2022-09-02T11:59:04.442Z,97008.28
2022-09-02T12:01:43.640Z,97001.97
2022-09-02T12:04:56.133Z,96996.78
2022-09-02T12:07:07.921Z,97001.28
2022-09-02T12:10:03.504Z,97010.63
2022-09-02T12:12:39.302Z,97008.47
2022-09-02T12:15:06.582Z,97020.22
2022-09-02T12:17:47.284Z,97008.06
2022-09-02T12:20:38.978Z,97008.53
2022-09-02T12:23:07.885Z,97010.19
2022-09-02T12:25:40.672Z,97007.72
2022-09-02T12:28:27.802Z,96999.28
2022-09-02T12:31:09.103Z,97000.84
2022-09-02T12:33:46.494Z,96995.22
2022-09-02T12:36:40.063Z,97002.22
2022-09-02T12:39:25.391Z,96987.00
2022-09-02T12:41:58.062Z,96979.53
2022-09-02T12:44:52.580Z,96991.47
2022-09-02T12:47:26.574Z,96972.16
2022-09-02T12:49:59.625Z,96979.72
2022-09-02T12:52:35.646Z,96981.53
2022-09-02T12:55:31.753Z,96977.19
2022-09-02T12:58:19.934Z,96973.72
2022-09-02T13:01:23.743Z,96973.91
2022-09-02T13:04:19.576Z,96973.19
2022-09-02T13:07:07.701Z,96969.78
2022-09-02T13:09:46.419Z,96961.69
2022-09-02T13:12:37.650Z,96972.06
2022-09-02T13:15:26.814Z,96969.41
2022-09-02T13:18:24.043Z,96972.03
2022-09-02T13:21:41.296Z,96974.28
2022-09-02T13:24:13.276Z,96975.38
2022-09-02T13:27:36.849Z,96966.63
2022-09-02T13:30:20.022Z,96962.91
2022-09-02T13:32:56.721Z,96954.81
2022-09-02T13:35:28.022Z,96964.50
2022-09-02T13:38:00.746Z,96958.28
2022-09-02T13:40:38.361Z,96956.31
2022-09-02T13:43:18.793Z,96952.91
2022-09-02T13:45:46.800Z,96949.34
2022-09-02T13:48:28.025Z,96950.97
2022-09-02T13:51:22.802Z,96952.91
2022-09-02T13:57:19.750Z,96939.03
2022-09-02T13:59:57.050Z,96953.72
2022-09-02T14:02:33.191Z,96955.38
2022-09-02T14:05:06.791Z,96950.84
2022-09-02T14:11:22.484Z,96943.44
2022-09-02T14:13:51.120Z,96949.56
2022-09-02T14:16:36.331Z,96942.16
2022-09-02T14:19:05.041Z,96934.94
2022-09-02T18:20:46.996Z,96889.22
2022-09-02T18:23:57.590Z,96895.28
2022-09-02T18:27:01.611Z,96894.16
2022-09-02T18:30:03.519Z,96899.66
2022-09-02T18:33:09.602Z,96893.78
2022-09-02T18:35:45.052Z,96906.22
2022-09-02T18:38:28.675Z,96913.06
2022-09-02T18:41:13.738Z,96907.59
2022-09-02T18:44:07.676Z,96908.00
2022-09-02T18:46:49.749Z,96915.22
2022-09-02T18:49:17.158Z,96915.34
2022-09-02T18:51:44.987Z,96908.63
2022-09-02T18:54:23.778Z,96916.00
2022-09-02T18:56:58.394Z,96916.41
2022-09-02T18:59:37.974Z,96902.72
2022-09-02T19:02:19.257Z,96914.56
2022-09-02T19:04:46.394Z,96906.84
2022-09-02T19:07:32.147Z,96907.94
2022-09-02T19:10:01.343Z,96903.09
2022-09-02T19:12:32.842Z,96897.88
2022-09-02T19:15:00.756Z,96903.06
2022-09-02T19:17:27.582Z,96906.72
2022-09-02T19:19:54.191Z,96915.88
2022-09-02T19:22:28.517Z,96914.44
2022-09-02T19:25:01.357Z,96914.38
2022-09-02T19:27:32.389Z,96915.00
2022-09-02T19:30:12.440Z,96917.78
2022-09-02T19:32:40.876Z,96912.25
2022-09-02T19:35:16.554Z,96915.28
2022-09-02T19:37:47.870Z,96923.34
2022-09-02T19:40:20.038Z,96917.31
2022-09-02T19:42:46.709Z,96921.63
2022-09-02T19:45:16.411Z,96928.28
2022-09-02T19:48:05.978Z,96934.19
2022-09-02T19:50:30.859Z,96932.81
2022-09-02T19:52:57.474Z,96942.25
2022-09-02T19:55:24.411Z,96944.78
2022-09-02T19:57:53.198Z,96931.00
2022-09-02T20:00:23.436Z,96938.31
2022-09-02T20:02:51.097Z,96942.19
2022-09-02T20:05:17.747Z,96936.03
2022-09-02T20:07:44.297Z,96930.63
2022-09-02T20:10:11.187Z,96930.28
2022-09-02T20:12:37.789Z,96920.81
2022-09-02T20:15:07.306Z,96931.13
2022-09-02T20:17:34.108Z,96925.13
2022-09-02T20:20:08.429Z,96932.44
2022-09-02T20:22:35.238Z,96933.66
2022-09-02T20:25:01.883Z,96928.50
2022-09-02T20:27:49.935Z,96924.53
2022-09-02T20:30:18.593Z,96919.03
2022-09-02T20:32:58.568Z,96922.88
2022-09-02T20:35:49.416Z,96926.47
2022-09-02T20:38:28.067Z,96941.09
2022-09-02T20:41:23.596Z,96944.25
2022-09-02T20:44:15.043Z,96942.81
2022-09-02T20:47:15.722Z,96941.25
2022-09-02T20:50:11.681Z,96930.06
2022-09-02T20:53:14.083Z,96940.50
2022-09-02T20:56:03.951Z,96932.69
2022-09-02T20:58:59.313Z,96928.28
2022-09-02T21:01:36.039Z,96916.38
2022-09-02T21:04:12.134Z,96921.56
2022-09-02T21:06:50.235Z,96911.09
2022-09-02T21:09:28.596Z,96902.47
2022-09-02T21:12:08.045Z,96909.31
2022-09-02T21:14:51.711Z,96907.63
2022-09-02T21:17:33.469Z,96901.00
2022-09-02T21:20:24.528Z,96908.91
2022-09-02T21:22:57.157Z,96906.03
2022-09-02T21:25:45.606Z,96902.00
2022-09-02T21:28:19.064Z,96901.63
2022-09-02T21:31:03.440Z,96901.63
2022-09-02T21:33:33.748Z,96906.69
2022-09-02T21:36:02.541Z,96904.03
2022-09-02T21:38:38.226Z,96900.91
2022-09-02T21:41:16.921Z,96912.16
2022-09-02T21:43:55.774Z,96900.63
2022-09-02T21:47:01.697Z,96913.53
2022-09-02T21:49:35.060Z,96913.53
2022-09-02T21:52:29.630Z,96919.88
2022-09-02T21:55:09.434Z,96915.78
2022-09-02T21:58:02.030Z,96905.00
2022-09-02T22:00:28.774Z,96909.78
2022-09-02T22:03:26.469Z,96908.88
2022-09-02T22:06:10.301Z,96900.84
2022-09-02T22:09:02.503Z,96910.28
2022-09-02T22:11:39.679Z,96910.75
2022-09-02T22:14:22.593Z,96918.19
2022-09-02T22:16:56.089Z,96913.84
2022-09-02T22:19:29.911Z,96911.34
2022-09-02T22:22:18.545Z,96913.16
2022-09-02T22:24:47.964Z,96915.16
2022-09-02T22:27:20.238Z,96919.94
2022-09-02T22:29:54.191Z,96927.16
2022-09-02T22:32:24.029Z,96922.97
2022-09-02T22:35:11.695Z,96916.03
2022-09-02T22:38:03.230Z,96920.22
2022-09-02T22:40:33.989Z,96916.63
2022-09-02T22:43:10.559Z,96907.06
2022-09-02T22:46:04.583Z,96912.78
2022-09-02T22:48:57.815Z,96907.69
2022-09-02T22:51:52.094Z,96917.53
2022-09-02T22:54:18.687Z,96909.75
2022-09-02T22:57:04.078Z,96907.81
2022-09-02T22:59:33.365Z,96904.59
2022-09-02T23:02:21.597Z,96890.25
2022-09-02T23:05:02.833Z,96903.41
2022-09-02T23:07:33.107Z,96902.06
2022-09-02T23:10:00.873Z,96901.66
2022-09-02T23:13:11.986Z,96904.75
2022-09-02T23:15:49.542Z,96905.94
2022-09-02T23:18:29.489Z,96908.63
2022-09-02T23:21:19.654Z,96901.78
2022-09-02T23:23:52.506Z,96901.84
2022-09-02T23:26:45.162Z,96910.69
2022-09-02T23:29:26.481Z,96918.06
2022-09-02T23:32:32.000Z,96899.59
2022-09-02T23:35:17.477Z,96896.28
2022-09-02T23:37:56.876Z,96897.28
2022-09-02T23:40:27.903Z,96902.75
2022-09-02T23:42:58.048Z,96898.28
2022-09-02T23:45:32.067Z,96898.38
2022-09-02T23:48:13.752Z,96886.16
2022-09-02T23:51:03.921Z,96890.69
2022-09-02T23:53:34.053Z,96894.59
2022-09-02T23:56:33.692Z,96897.66
2022-09-02T23:59:10.071Z,96892.50
